createdAt,value
2023-05-17T00:01:58.290Z,27.73
2023-05-17T00:04:27.879Z,18.05
2023-05-17T00:07:00.909Z,23.80
2023-05-17T00:09:30.614Z,19.77
2023-05-17T00:12:00.209Z,17.23
2023-05-17T00:14:29.799Z,19.60
2023-05-17T00:16:59.382Z,21.98
2023-05-17T00:19:29.130Z,20.73
2023-05-17T00:21:58.739Z,20.85
2023-05-17T00:24:28.989Z,20.25
2023-05-17T00:26:58.632Z,22.98
2023-05-17T00:29:28.211Z,26.52
2023-05-17T00:31:57.849Z,22.63
2023-05-17T00:34:27.471Z,23.77
2023-05-17T00:36:57.261Z,19.27
2023-05-17T00:39:26.885Z,19.60
2023-05-17T00:41:56.533Z,18.13
2023-05-17T00:44:26.183Z,22.25
2023-05-17T00:46:55.846Z,22.10
2023-05-17T00:49:25.532Z,24.35
2023-05-17T00:51:56.181Z,17.40
2023-05-17T00:54:26.037Z,18.00
2023-05-17T00:56:56.672Z,20.15
2023-05-17T00:59:26.508Z,19.33
2023-05-17T01:01:56.982Z,21.30
2023-05-17T01:04:27.590Z,23.05
2023-05-17T01:06:57.768Z,16.08
2023-05-17T01:09:27.643Z,23.88
2023-05-17T01:12:22.822Z,19.63
2023-05-17T01:15:10.953Z,15.50
2023-05-17T01:18:20.588Z,15.90
2023-05-17T01:20:53.370Z,17.48
2023-05-17T01:23:46.890Z,21.75
2023-05-17T01:26:24.152Z,15.05
2023-05-17T01:28:56.889Z,13.18
2023-05-17T01:31:27.070Z,18.33
2023-05-17T01:33:59.550Z,18.65
2023-05-17T01:36:29.179Z,19.80
2023-05-17T01:38:58.853Z,21.67
2023-05-17T01:41:36.776Z,31.05
2023-05-17T01:46:49.667Z,20.30
2023-05-17T01:49:39.266Z,24.02
2023-05-17T01:52:18.735Z,22.23
2023-05-17T01:55:09.045Z,20.73
2023-05-17T01:57:39.217Z,22.23
2023-05-17T02:00:11.115Z,21.92
2023-05-17T02:02:40.791Z,14.73
2023-05-17T02:05:10.681Z,17.20
2023-05-17T02:07:41.186Z,13.65
2023-05-17T02:10:11.576Z,16.63
2023-05-17T02:12:41.212Z,24.33
2023-05-17T02:15:13.578Z,15.20
2023-05-17T02:17:43.932Z,16.80
2023-05-17T02:20:15.695Z,23.13
2023-05-17T02:22:45.246Z,16.88
2023-05-17T02:25:14.818Z,15.73
2023-05-17T02:27:44.398Z,14.07
2023-05-17T02:30:17.868Z,15.32
2023-05-17T02:32:47.982Z,18.27
2023-05-17T02:35:17.811Z,21.05
2023-05-17T02:37:47.484Z,15.85
2023-05-17T02:40:17.535Z,14.57
2023-05-17T02:42:47.345Z,18.42
2023-05-17T02:45:19.860Z,18.90
2023-05-17T02:47:49.641Z,17.60
2023-05-17T02:50:19.281Z,19.15
2023-05-17T02:52:48.945Z,16.30
2023-05-17T02:55:18.661Z,17.00
2023-05-17T02:57:48.339Z,13.57
2023-05-17T03:00:18.511Z,21.60
2023-05-17T03:02:48.176Z,18.48
2023-05-17T03:05:18.050Z,26.38
2023-05-17T03:07:47.755Z,16.50
2023-05-17T03:10:17.942Z,17.27
2023-05-17T03:12:47.601Z,16.58
2023-05-17T03:15:17.451Z,16.85
2023-05-17T03:17:47.878Z,16.83
2023-05-17T03:20:17.531Z,15.20
2023-05-17T03:22:47.248Z,19.23
2023-05-17T03:25:17.093Z,16.77
2023-05-17T03:27:46.911Z,15.35
2023-05-17T03:30:17.012Z,18.48
2023-05-17T03:32:47.464Z,19.33
2023-05-17T03:35:20.105Z,17.27
2023-05-17T03:37:49.848Z,17.50
2023-05-17T03:40:21.532Z,19.45
2023-05-17T03:42:51.247Z,17.05
2023-05-17T03:45:23.646Z,19.00
2023-05-17T03:47:53.440Z,20.63
2023-05-17T03:50:25.048Z,16.50
2023-05-17T03:52:54.780Z,21.00
2023-05-17T03:55:24.599Z,23.98
2023-05-17T03:57:54.265Z,16.15
2023-05-17T04:00:24.132Z,19.48
2023-05-17T04:02:53.987Z,15.25
2023-05-17T04:05:23.723Z,19.17
2023-05-17T04:07:53.482Z,20.58
2023-05-17T04:10:23.397Z,16.08
2023-05-17T04:12:53.074Z,16.23
2023-05-17T04:15:22.790Z,25.00
2023-05-17T04:17:53.361Z,17.63
2023-05-17T04:20:23.675Z,21.60
2023-05-17T04:22:53.369Z,16.38
2023-05-17T04:25:24.210Z,24.10
2023-05-17T04:27:53.869Z,18.15
2023-05-17T04:30:25.642Z,18.85
2023-05-17T04:32:55.274Z,16.75
2023-05-17T04:35:24.872Z,21.48
2023-05-17T04:37:54.858Z,25.48
2023-05-17T04:40:25.131Z,18.83
2023-05-17T04:42:54.684Z,16.48
2023-05-17T04:45:24.310Z,20.10
2023-05-17T04:47:54.507Z,13.73
2023-05-17T04:50:24.340Z,16.23
2023-05-17T04:52:54.154Z,20.40
2023-05-17T04:55:24.042Z,18.42
2023-05-17T04:57:54.051Z,19.63
2023-05-17T05:00:25.512Z,16.83
2023-05-17T05:02:55.220Z,20.05
2023-05-17T05:05:30.105Z,14.15
2023-05-17T05:08:00.105Z,29.95
2023-05-17T05:10:32.865Z,15.18
2023-05-17T05:13:02.504Z,15.70
2023-05-17T05:15:32.078Z,21.13
2023-05-17T05:18:02.467Z,18.70
2023-05-17T05:20:33.257Z,47.47
2023-05-17T05:23:07.471Z,18.00
2023-05-17T05:25:40.252Z,18.77
2023-05-17T05:28:09.935Z,14.55
2023-05-17T05:30:39.621Z,17.25
2023-05-17T05:33:09.307Z,18.63
2023-05-17T05:35:39.122Z,20.98
2023-05-17T05:38:12.065Z,17.88
2023-05-17T05:40:41.659Z,20.17
2023-05-17T05:43:11.332Z,18.67
2023-05-17T05:45:47.420Z,13.48
2023-05-17T05:48:17.516Z,13.40
2023-05-17T05:50:47.657Z,16.77
2023-05-17T05:53:19.226Z,17.90
2023-05-17T05:55:49.589Z,21.23
2023-05-17T05:58:19.226Z,15.52
2023-05-17T06:00:49.508Z,13.95
2023-05-17T06:03:19.081Z,17.05
2023-05-17T06:05:48.765Z,14.95
2023-05-17T06:08:18.531Z,24.38
2023-05-17T06:10:49.277Z,14.30
2023-05-17T06:13:18.933Z,22.00
2023-05-17T06:15:51.909Z,20.13
2023-05-17T06:18:22.208Z,16.35
2023-05-17T06:20:51.973Z,13.85
2023-05-17T06:23:21.615Z,19.73
2023-05-17T06:25:51.380Z,14.68
2023-05-17T06:28:21.231Z,19.38
2023-05-17T06:30:50.765Z,17.55
2023-05-17T06:33:20.494Z,17.63
2023-05-17T06:35:57.057Z,12.40
2023-05-17T06:38:27.563Z,16.88
2023-05-17T06:40:59.173Z,18.05
2023-05-17T06:43:28.866Z,15.77
2023-05-17T06:45:58.470Z,18.63
2023-05-17T06:48:28.264Z,13.55
2023-05-17T06:50:57.880Z,14.35
2023-05-17T06:53:28.943Z,23.60
2023-05-17T06:55:58.677Z,15.50
2023-05-17T06:58:28.341Z,14.48
2023-05-17T07:00:59.028Z,14.50
2023-05-17T07:03:29.201Z,12.95
2023-05-17T07:06:04.942Z,16.83
2023-05-17T07:08:37.112Z,14.30
2023-05-17T07:11:07.320Z,15.40
2023-05-17T07:13:36.873Z,16.83
2023-05-17T07:16:10.364Z,20.15
2023-05-17T07:18:40.739Z,13.85
2023-05-17T07:21:10.464Z,12.63
2023-05-17T07:23:40.102Z,15.45
2023-05-17T07:26:10.756Z,17.45
2023-05-17T07:28:40.477Z,13.82
2023-05-17T07:31:10.022Z,15.75
2023-05-17T07:33:42.507Z,14.52
2023-05-17T07:36:12.559Z,23.02
2023-05-17T07:38:44.398Z,16.20
2023-05-17T07:41:15.526Z,18.10
2023-05-17T07:43:45.707Z,11.52
2023-05-17T07:46:15.382Z,12.55
2023-05-17T07:48:45.227Z,14.82
2023-05-17T07:51:15.031Z,15.38
2023-05-17T07:53:44.638Z,16.58
2023-05-17T07:56:14.386Z,20.75
2023-05-17T07:58:44.005Z,16.88
2023-05-17T08:01:13.637Z,17.08
2023-05-17T08:03:49.486Z,18.98
2023-05-17T08:06:20.121Z,19.45
2023-05-17T08:08:49.846Z,15.65
2023-05-17T08:11:20.243Z,20.95
2023-05-17T08:13:49.874Z,17.08
2023-05-17T08:16:19.479Z,20.48
2023-05-17T08:18:50.059Z,17.85
2023-05-17T08:21:19.752Z,22.65
2023-05-17T08:23:49.462Z,17.83
2023-05-17T08:26:20.540Z,16.27
2023-05-17T08:28:50.207Z,17.23
2023-05-17T08:31:19.871Z,22.40
2023-05-17T08:33:49.592Z,14.80
2023-05-17T08:36:19.389Z,18.77
2023-05-17T08:38:49.112Z,15.27
2023-05-17T08:41:18.836Z,13.32
2023-05-17T08:43:50.238Z,34.45
2023-05-17T08:46:25.353Z,17.52
2023-05-17T08:49:01.494Z,12.85
2023-05-17T08:51:31.606Z,13.23
2023-05-17T08:54:01.415Z,17.10
2023-05-17T08:56:33.932Z,16.83
2023-05-17T08:59:06.867Z,20.63
2023-05-17T09:01:36.793Z,16.67
2023-05-17T09:04:07.347Z,20.27
2023-05-17T09:06:37.511Z,17.23
2023-05-17T09:09:09.216Z,20.30
2023-05-17T09:11:39.134Z,16.25
2023-05-17T09:14:12.042Z,22.85
2023-05-17T09:16:41.825Z,18.00
2023-05-17T09:19:18.353Z,16.30
2023-05-17T09:21:51.093Z,15.30
2023-05-17T09:24:29.186Z,16.27
2023-05-17T09:27:05.125Z,18.08
2023-05-17T09:29:35.820Z,23.02
2023-05-17T09:32:26.791Z,16.10
2023-05-17T09:34:58.129Z,13.40
2023-05-17T09:37:28.133Z,12.40
2023-05-17T09:39:58.004Z,16.30
2023-05-17T09:42:29.070Z,24.60
2023-05-17T09:44:59.374Z,17.50
2023-05-17T09:47:30.459Z,16.05
2023-05-17T09:50:05.479Z,13.27
2023-05-17T09:52:38.782Z,16.13
2023-05-17T09:55:11.347Z,14.80
2023-05-17T09:57:42.394Z,11.38
2023-05-17T10:00:15.681Z,16.52
2023-05-17T10:02:48.761Z,13.25
2023-05-17T10:05:21.024Z,14.18
2023-05-17T10:07:54.133Z,14.50
2023-05-17T10:10:24.973Z,16.23
2023-05-17T10:12:55.334Z,18.10
2023-05-17T10:15:25.971Z,19.75
2023-05-17T10:17:56.866Z,19.95
2023-05-17T10:20:27.190Z,23.55
2023-05-17T10:22:58.681Z,20.13
2023-05-17T10:25:31.740Z,18.60
2023-05-17T10:28:01.569Z,32.58
2023-05-17T10:30:31.613Z,25.15
2023-05-17T10:33:03.113Z,27.98
2023-05-17T10:35:35.379Z,18.75
2023-05-17T10:38:04.951Z,30.40
2023-05-17T10:40:37.847Z,30.75
2023-05-17T10:43:09.875Z,18.30
2023-05-17T10:45:39.995Z,18.35
2023-05-17T10:48:10.446Z,17.70
2023-05-17T10:50:50.612Z,24.67
2023-05-17T10:53:30.471Z,23.70
2023-05-17T10:56:00.467Z,20.48
2023-05-17T10:58:31.379Z,24.27
2023-05-17T11:01:00.944Z,20.20
2023-05-17T11:03:31.899Z,18.50
2023-05-17T11:06:25.389Z,22.38
2023-05-17T11:09:18.454Z,19.83
2023-05-17T11:12:09.386Z,25.95
2023-05-17T11:14:54.845Z,14.00
2023-05-17T11:17:35.963Z,22.10
2023-05-17T11:20:27.983Z,20.15
2023-05-17T11:23:20.332Z,24.15
2023-05-17T11:25:52.151Z,25.73
2023-05-17T11:28:24.598Z,24.20
2023-05-17T11:31:03.418Z,26.20
2023-05-17T11:33:44.852Z,31.85
2023-05-17T11:36:21.501Z,33.25
2023-05-17T11:39:11.795Z,40.17
2023-05-17T11:41:46.915Z,36.13
2023-05-17T11:44:17.264Z,30.10
2023-05-17T11:46:47.803Z,38.90
2023-05-17T11:49:30.975Z,28.15
2023-05-17T11:52:04.854Z,32.70
2023-05-17T11:54:35.191Z,23.83
2023-05-17T11:57:05.802Z,26.23
2023-05-17T11:59:45.027Z,26.27
2023-05-17T12:02:34.970Z,25.73
2023-05-17T12:05:04.610Z,28.27
2023-05-17T12:07:36.286Z,25.80
2023-05-17T12:10:07.639Z,24.83
2023-05-17T12:12:37.778Z,28.75
2023-05-17T12:15:07.952Z,20.52
2023-05-17T12:17:47.747Z,20.25
2023-05-17T12:20:19.339Z,23.00
2023-05-17T12:22:56.837Z,17.60
2023-05-17T12:25:29.187Z,18.67
2023-05-17T12:28:23.701Z,22.52
2023-05-17T12:31:04.457Z,22.95
2023-05-17T12:33:41.263Z,28.65
2023-05-17T12:36:15.314Z,20.87
2023-05-17T12:38:46.342Z,27.25
2023-05-17T12:41:18.163Z,20.88
2023-05-17T12:43:53.133Z,22.33
2023-05-17T12:46:27.114Z,27.10
2023-05-17T12:48:57.425Z,24.38
2023-05-17T12:51:27.346Z,29.55
2023-05-17T12:53:58.624Z,37.10
2023-05-17T12:56:32.269Z,32.60
2023-05-17T12:59:19.974Z,41.63
2023-05-17T13:01:58.307Z,55.53
2023-05-17T13:04:35.731Z,60.10
2023-05-17T13:07:07.119Z,51.33
2023-05-17T13:09:47.586Z,38.28
2023-05-17T13:12:23.233Z,44.90
2023-05-17T13:14:55.232Z,33.70
2023-05-17T13:17:37.318Z,37.00
2023-05-17T13:20:10.857Z,37.97
2023-05-17T13:22:48.214Z,34.22
2023-05-17T13:25:18.056Z,30.80
2023-05-17T13:27:50.967Z,31.45
2023-05-17T13:30:25.150Z,41.45
2023-05-17T13:32:56.149Z,36.03
2023-05-17T13:35:25.909Z,42.08
2023-05-17T13:37:58.329Z,49.30
2023-05-17T13:40:28.190Z,32.88
2023-05-17T13:42:57.960Z,52.80
2023-05-17T13:45:27.600Z,40.60
2023-05-17T13:47:57.279Z,45.13
2023-05-17T13:50:27.792Z,43.00
2023-05-17T13:52:57.876Z,42.58
2023-05-17T13:55:27.780Z,44.35
2023-05-17T13:57:57.478Z,34.22
2023-05-17T14:00:27.428Z,40.05
2023-05-17T14:02:57.291Z,30.35
2023-05-17T14:05:27.008Z,22.60
2023-05-17T14:07:56.664Z,29.98
2023-05-17T14:10:31.455Z,27.67
2023-05-17T14:13:01.309Z,34.00
2023-05-17T14:15:31.006Z,33.90
2023-05-17T14:18:06.545Z,24.55
2023-05-17T14:20:38.612Z,35.47
2023-05-17T14:23:10.655Z,30.80
2023-05-17T14:25:40.393Z,27.75
2023-05-17T14:28:15.254Z,37.67
2023-05-17T14:30:44.926Z,27.05
2023-05-17T14:33:14.660Z,27.50
2023-05-17T14:35:44.405Z,30.75
2023-05-17T14:38:14.116Z,27.83
2023-05-17T14:40:43.738Z,34.03
2023-05-17T14:43:15.454Z,32.03
2023-05-17T14:45:45.152Z,29.50
2023-05-17T14:48:14.884Z,25.65
2023-05-17T14:50:44.635Z,30.67
2023-05-17T14:53:14.535Z,37.22
2023-05-17T14:55:44.329Z,30.85
2023-05-17T14:58:17.155Z,30.48
2023-05-17T15:00:50.806Z,30.35
2023-05-17T15:03:22.583Z,27.85
2023-05-17T15:06:00.018Z,30.75
2023-05-17T15:08:29.963Z,25.75
2023-05-17T15:11:00.330Z,33.55
2023-05-17T15:13:29.928Z,31.38
2023-05-17T15:15:59.660Z,32.15
2023-05-17T15:18:29.375Z,29.77
2023-05-17T15:20:59.107Z,27.98
2023-05-17T15:23:31.059Z,23.88
2023-05-17T15:26:00.753Z,34.30
2023-05-17T15:28:30.389Z,29.38
2023-05-17T15:31:04.301Z,25.15
2023-05-17T15:33:34.094Z,25.67
2023-05-17T15:36:03.765Z,27.67
2023-05-17T15:38:33.399Z,29.50
2023-05-17T15:41:07.961Z,27.95
2023-05-17T15:43:37.988Z,40.13
2023-05-17T15:46:08.016Z,31.95
2023-05-17T15:48:38.385Z,28.38
2023-05-17T15:51:08.944Z,29.38
2023-05-17T15:53:38.660Z,35.17
2023-05-17T15:56:08.674Z,31.23
2023-05-17T15:58:38.405Z,28.55
2023-05-17T16:01:08.541Z,25.00
2023-05-17T16:03:38.531Z,43.80
2023-05-17T16:06:08.734Z,29.30
2023-05-17T16:08:38.419Z,31.73
2023-05-17T16:11:09.365Z,29.52
2023-05-17T16:13:39.018Z,29.13
2023-05-17T16:16:11.563Z,37.25
2023-05-17T16:18:41.323Z,39.70
2023-05-17T16:21:11.186Z,28.92
2023-05-17T16:23:40.809Z,36.22
2023-05-17T16:26:10.689Z,32.30
2023-05-17T16:28:40.291Z,37.55
2023-05-17T16:31:10.127Z,38.20
2023-05-17T16:33:39.889Z,33.92
2023-05-17T16:36:10.482Z,32.03
2023-05-17T16:38:40.248Z,38.80
2023-05-17T16:41:09.920Z,33.38
2023-05-17T16:43:39.595Z,32.22
2023-05-17T16:46:09.296Z,34.28
2023-05-17T16:48:38.916Z,35.13
2023-05-17T16:51:08.503Z,35.35
2023-05-17T16:53:38.175Z,30.08
2023-05-17T16:56:10.864Z,32.53
2023-05-17T16:58:43.034Z,28.73
2023-05-17T17:01:12.696Z,28.25
2023-05-17T17:03:42.752Z,33.85
2023-05-17T17:06:12.690Z,41.13
2023-05-17T17:08:44.645Z,34.65
2023-05-17T17:11:14.278Z,40.28
2023-05-17T17:13:43.966Z,32.47
2023-05-17T17:16:13.756Z,38.13
2023-05-17T17:18:45.247Z,34.47
2023-05-17T17:21:15.433Z,31.98
2023-05-17T17:23:46.095Z,28.67
2023-05-17T17:26:15.761Z,27.90
2023-05-17T17:28:45.944Z,31.95
2023-05-17T17:31:15.741Z,27.92
2023-05-17T17:33:45.294Z,28.02
2023-05-17T17:36:14.906Z,26.13
2023-05-17T17:38:44.483Z,27.88
2023-05-17T17:41:14.009Z,30.38
2023-05-17T17:43:44.417Z,30.05
2023-05-17T17:46:14.024Z,29.83
2023-05-17T17:48:43.874Z,28.42
2023-05-17T17:51:13.605Z,34.83
2023-05-17T17:53:43.676Z,27.70
2023-05-17T17:56:13.564Z,24.58
2023-05-17T17:58:43.236Z,28.30
2023-05-17T18:01:12.808Z,31.33
2023-05-17T18:03:42.477Z,27.40
2023-05-17T18:06:12.069Z,29.77
2023-05-17T18:08:41.757Z,31.08
2023-05-17T18:11:11.343Z,27.25
2023-05-17T18:13:40.886Z,26.90
2023-05-17T18:16:10.476Z,27.67
2023-05-17T18:18:42.320Z,32.00
2023-05-17T18:21:12.320Z,28.83
2023-05-17T18:23:45.122Z,32.63
2023-05-17T18:26:14.977Z,36.50
2023-05-17T18:28:44.542Z,31.40
2023-05-17T18:31:15.808Z,28.08
2023-05-17T18:33:45.373Z,27.50
2023-05-17T18:36:15.191Z,25.52
2023-05-17T18:38:44.806Z,24.75
2023-05-17T18:41:14.402Z,26.77
2023-05-17T18:43:46.825Z,27.30
2023-05-17T18:46:16.414Z,32.03
2023-05-17T18:48:46.030Z,23.00
2023-05-17T18:51:17.296Z,26.58
2023-05-17T18:53:47.207Z,27.33
2023-05-17T18:56:24.118Z,20.70
2023-05-17T18:58:58.014Z,24.33
2023-05-17T19:01:28.712Z,29.50
2023-05-17T19:03:59.885Z,26.63
2023-05-17T19:06:29.456Z,24.13
2023-05-17T19:09:00.150Z,24.98
2023-05-17T19:11:33.184Z,25.95
2023-05-17T19:14:02.805Z,23.20
2023-05-17T19:16:32.545Z,24.75
2023-05-17T19:19:02.473Z,27.27
2023-05-17T19:21:32.892Z,20.85
2023-05-17T19:24:05.988Z,27.83
2023-05-17T19:26:35.579Z,26.00
2023-05-17T19:29:05.207Z,26.00
2023-05-17T19:31:35.125Z,22.05
2023-05-17T19:34:07.213Z,33.13
2023-05-17T19:36:36.905Z,27.85
2023-05-17T19:39:06.673Z,26.02
2023-05-17T19:41:36.249Z,26.67
2023-05-17T19:44:05.938Z,22.77
2023-05-17T19:46:38.141Z,24.13
2023-05-17T19:49:07.947Z,23.42
2023-05-17T19:51:37.519Z,28.42
2023-05-17T19:54:07.258Z,25.40
2023-05-17T19:56:39.766Z,25.85
2023-05-17T19:59:09.374Z,24.50
2023-05-17T20:01:39.118Z,25.52
2023-05-17T20:04:08.889Z,25.70
2023-05-17T20:06:38.677Z,29.35
2023-05-17T20:09:09.239Z,29.90
2023-05-17T20:11:38.744Z,26.75
2023-05-17T20:14:08.464Z,30.15
2023-05-17T20:16:38.142Z,25.70
2023-05-17T20:19:08.042Z,27.73
2023-05-17T20:21:37.867Z,31.85
2023-05-17T20:24:08.884Z,27.20
2023-05-17T20:26:38.976Z,21.90
2023-05-17T20:29:10.026Z,28.92
2023-05-17T20:31:39.864Z,24.83
2023-05-17T20:34:09.496Z,28.15
2023-05-17T20:36:39.119Z,29.65
2023-05-17T20:39:08.992Z,26.70
2023-05-17T20:41:38.564Z,28.05
2023-05-17T20:44:08.224Z,29.20
2023-05-17T20:46:37.739Z,36.03
2023-05-17T20:49:07.344Z,32.05
2023-05-17T20:51:37.128Z,33.55
2023-05-17T20:54:07.820Z,30.08
2023-05-17T20:56:38.646Z,27.15
2023-05-17T20:59:11.850Z,30.30
2023-05-17T21:01:41.534Z,24.38
2023-05-17T21:04:14.632Z,31.98
2023-05-17T21:06:45.901Z,34.85
2023-05-17T21:09:15.555Z,33.65
2023-05-17T21:11:45.815Z,32.75
2023-05-17T21:14:15.366Z,28.73
2023-05-17T21:16:44.989Z,29.23
2023-05-17T21:19:16.109Z,25.48
2023-05-17T21:21:46.031Z,27.67
2023-05-17T21:24:16.368Z,29.65
2023-05-17T21:26:45.927Z,24.52
2023-05-17T21:29:15.541Z,29.67
2023-05-17T21:31:45.104Z,26.67
2023-05-17T21:34:14.750Z,31.42
2023-05-17T21:36:45.354Z,29.77
2023-05-17T21:39:14.973Z,30.33
2023-05-17T21:41:47.414Z,34.75
2023-05-17T21:44:16.971Z,31.77
2023-05-17T21:46:46.599Z,30.63
2023-05-17T21:49:18.763Z,36.42
2023-05-17T21:51:48.642Z,33.35
2023-05-17T21:54:18.339Z,23.38
2023-05-17T21:56:47.923Z,29.20
2023-05-17T21:59:17.538Z,35.28
2023-05-17T22:01:47.427Z,26.60
2023-05-17T22:04:17.121Z,28.33
2023-05-17T22:06:46.702Z,28.00
2023-05-17T22:09:16.413Z,32.10
2023-05-17T22:11:47.047Z,26.73
2023-05-17T22:14:16.693Z,28.38
2023-05-17T22:16:46.248Z,30.50
2023-05-17T22:19:16.079Z,28.35
2023-05-17T22:21:45.694Z,30.77
2023-05-17T22:24:16.746Z,28.40
2023-05-17T22:26:46.404Z,27.27
2023-05-17T22:29:16.278Z,28.75
2023-05-17T22:31:46.002Z,27.85
2023-05-17T22:34:15.576Z,29.90
2023-05-17T22:36:45.250Z,30.23
2023-05-17T22:39:15.078Z,25.92
2023-05-17T22:41:44.632Z,28.48
2023-05-17T22:44:14.161Z,35.30
2023-05-17T22:46:43.784Z,25.80
2023-05-17T22:49:13.360Z,27.33
2023-05-17T22:51:42.968Z,30.52
2023-05-17T22:54:12.810Z,26.23
2023-05-17T22:56:42.556Z,23.33
2023-05-17T22:59:12.315Z,29.33
2023-05-17T23:01:41.961Z,30.58
2023-05-17T23:04:11.597Z,28.15
2023-05-17T23:06:41.178Z,29.85
2023-05-17T23:09:10.898Z,29.10
2023-05-17T23:11:42.735Z,25.83
2023-05-17T23:14:12.961Z,32.97
2023-05-17T23:16:46.160Z,42.28
2023-05-17T23:19:15.953Z,29.83
2023-05-17T23:21:47.891Z,31.05
2023-05-17T23:24:19.169Z,28.63
2023-05-17T23:26:49.163Z,31.13
2023-05-17T23:29:21.785Z,30.83
2023-05-17T23:31:52.385Z,35.30
2023-05-17T23:34:22.647Z,33.42
2023-05-17T23:36:52.218Z,38.22
2023-05-17T23:39:21.942Z,39.13
2023-05-17T23:41:54.215Z,33.83
2023-05-17T23:44:23.916Z,36.97
2023-05-17T23:46:55.486Z,34.72
2023-05-17T23:49:25.572Z,31.48
2023-05-17T23:51:57.237Z,33.78
2023-05-17T23:54:26.980Z,34.30
2023-05-17T23:56:56.586Z,37.50
2023-05-17T23:59:26.628Z,29.35
